createdAt,value
2018-11-10T00:00:07.061Z,72.35
2018-11-10T00:02:36.055Z,72.61
2018-11-10T00:05:05.496Z,72.75
2018-11-10T00:07:34.310Z,72.59
2018-11-10T00:10:03.099Z,72.61
2018-11-10T00:12:31.843Z,72.23
2018-11-10T00:15:00.617Z,72.78
2018-11-10T00:17:29.425Z,72.07
2018-11-10T00:19:58.150Z,72.04
2018-11-10T00:22:26.867Z,71.98
2018-11-10T00:24:55.610Z,71.43
2018-11-10T00:27:24.351Z,71.76
2018-11-10T00:29:53.141Z,71.11
2018-11-10T00:32:21.962Z,71.28
2018-11-10T00:34:50.736Z,70.99
2018-11-10T00:37:19.625Z,70.98
2018-11-10T00:39:48.455Z,71.61
2018-11-10T00:42:17.264Z,72.29
2018-11-10T00:44:46.030Z,71.74
2018-11-10T00:47:14.916Z,71.46
2018-11-10T00:49:43.752Z,71.41
2018-11-10T00:52:12.560Z,71.80
2018-11-10T00:54:41.425Z,71.74
2018-11-10T00:57:10.416Z,71.75
2018-11-10T00:59:39.153Z,72.09
2018-11-10T01:02:07.939Z,72.21
2018-11-10T01:04:36.718Z,71.49
2018-11-10T01:07:06.362Z,71.65
2018-11-10T01:09:35.215Z,72.22
2018-11-10T01:12:04.623Z,72.37
2018-11-10T01:14:33.382Z,71.63
2018-11-10T01:17:02.239Z,71.24
2018-11-10T01:19:31.028Z,71.17
2018-11-10T01:22:00.120Z,70.87
2018-11-10T01:24:28.915Z,71.01
2018-11-10T01:26:57.695Z,70.33
2018-11-10T01:29:26.491Z,70.32
2018-11-10T01:31:55.234Z,70.45
2018-11-10T01:34:24.031Z,70.46
2018-11-10T01:36:52.778Z,69.90
2018-11-10T01:39:21.516Z,70.09
2018-11-10T01:41:50.258Z,70.25
2018-11-10T01:44:18.986Z,70.35
2018-11-10T01:46:48.103Z,70.77
2018-11-10T01:49:16.859Z,70.46
2018-11-10T01:51:45.639Z,70.93
2018-11-10T01:54:14.749Z,70.82
2018-11-10T01:56:43.563Z,70.84
2018-11-10T01:59:12.323Z,70.54
2018-11-10T02:01:41.025Z,70.96
2018-11-10T02:04:09.841Z,71.13
2018-11-10T02:06:38.662Z,70.95
2018-11-10T02:09:09.818Z,70.82
2018-11-10T02:11:38.612Z,71.32
2018-11-10T02:14:07.443Z,71.09
2018-11-10T02:16:36.211Z,70.71
2018-11-10T02:19:05.337Z,70.95
2018-11-10T02:21:34.158Z,70.37
2018-11-10T02:24:02.925Z,70.57
2018-11-10T02:26:31.798Z,70.83
2018-11-10T02:29:00.723Z,71.27
2018-11-10T02:31:29.591Z,71.16
2018-11-10T02:33:58.367Z,70.97
2018-11-10T02:36:27.189Z,71.37
2018-11-10T02:38:55.968Z,71.04
2018-11-10T02:41:25.061Z,70.99
2018-11-10T02:43:53.928Z,70.84
2018-11-10T02:46:22.836Z,70.80
2018-11-10T02:48:51.616Z,71.47
2018-11-10T02:51:20.400Z,71.46
2018-11-10T02:53:49.161Z,71.39
2018-11-10T02:56:18.833Z,70.98
2018-11-10T02:58:47.578Z,71.70
2018-11-10T03:01:16.364Z,72.17
2018-11-10T03:03:45.100Z,72.23
2018-11-10T03:06:14.831Z,72.50
2018-11-10T03:08:43.616Z,72.79
2018-11-10T03:11:12.383Z,72.34
2018-11-10T03:13:41.163Z,72.43
2018-11-10T03:16:09.994Z,73.08
2018-11-10T03:18:38.836Z,72.91
2018-11-10T03:21:07.660Z,73.78
2018-11-10T03:23:36.458Z,74.03
2018-11-10T03:26:06.006Z,72.86
2018-11-10T03:28:34.722Z,72.87
2018-11-10T03:31:03.483Z,72.68
2018-11-10T03:33:32.276Z,73.12
2018-11-10T03:36:01.067Z,73.14
2018-11-10T03:38:30.022Z,72.72
2018-11-10T03:40:58.970Z,73.03
2018-11-10T03:43:27.860Z,73.32
2018-11-10T03:45:56.654Z,73.13
2018-11-10T03:48:25.421Z,72.82
2018-11-10T03:50:54.146Z,72.67
2018-11-10T03:53:22.918Z,72.54
2018-11-10T03:55:51.695Z,72.06
2018-11-10T03:58:20.419Z,72.23
2018-11-10T04:00:49.208Z,71.97
2018-11-10T04:03:18.005Z,72.19
2018-11-10T04:05:46.812Z,71.57
2018-11-10T04:08:15.597Z,71.60
2018-11-10T04:10:44.346Z,72.16
2018-11-10T04:13:13.122Z,72.05
2018-11-10T04:15:41.882Z,72.26
2018-11-10T04:18:10.655Z,71.86
2018-11-10T04:20:39.445Z,72.47
2018-11-10T04:23:08.392Z,72.33
2018-11-10T04:25:37.164Z,72.55
2018-11-10T04:28:06.431Z,72.33
2018-11-10T04:30:35.141Z,72.30
2018-11-10T04:33:03.955Z,72.39
2018-11-10T04:35:32.995Z,72.34
2018-11-10T04:38:01.759Z,72.49
2018-11-10T04:40:32.354Z,72.71
2018-11-10T04:43:01.164Z,72.73
2018-11-10T04:45:29.942Z,73.02
2018-11-10T04:47:58.710Z,73.13
2018-11-10T04:50:27.470Z,73.62
2018-11-10T04:52:56.332Z,73.58
2018-11-10T04:55:25.193Z,73.51
2018-11-10T04:57:53.914Z,73.75
2018-11-10T05:00:22.730Z,73.48
2018-11-10T05:02:51.489Z,73.43
2018-11-10T05:05:20.345Z,73.34
2018-11-10T05:07:49.061Z,73.12
2018-11-10T05:10:17.827Z,73.30
2018-11-10T05:12:46.568Z,73.16
2018-11-10T05:15:15.364Z,73.04
2018-11-10T05:17:44.177Z,72.40
2018-11-10T05:20:12.935Z,72.39
2018-11-10T05:22:41.759Z,72.35
2018-11-10T05:25:11.262Z,72.28
2018-11-10T05:27:40.253Z,72.23
2018-11-10T05:30:09.647Z,72.38
2018-11-10T05:32:38.485Z,73.45
2018-11-10T05:35:08.132Z,73.44
2018-11-10T05:37:36.957Z,73.56
2018-11-10T05:40:07.062Z,73.39
2018-11-10T05:42:35.910Z,73.52
2018-11-10T05:45:05.006Z,73.85
2018-11-10T05:47:33.867Z,73.26
2018-11-10T05:50:02.703Z,72.61
2018-11-10T05:52:31.654Z,72.42
2018-11-10T05:55:00.501Z,72.60
2018-11-10T05:57:29.310Z,72.08
2018-11-10T05:59:58.155Z,72.03
2018-11-10T06:02:26.922Z,72.09
2018-11-10T06:04:55.857Z,71.76
2018-11-10T06:07:24.639Z,71.79
2018-11-10T06:09:53.658Z,71.94
2018-11-10T06:12:22.723Z,71.72
2018-11-10T06:14:51.742Z,72.60
2018-11-10T06:17:20.670Z,72.38
2018-11-10T06:19:49.530Z,72.01
2018-11-10T06:22:18.317Z,72.02
2018-11-10T06:24:47.201Z,72.43
2018-11-10T06:27:16.025Z,72.55
2018-11-10T06:29:44.834Z,72.08
2018-11-10T06:32:13.594Z,72.18
2018-11-10T06:34:42.426Z,72.79
2018-11-10T06:37:11.236Z,73.16
2018-11-10T06:39:40.053Z,72.62
2018-11-10T06:42:08.922Z,72.21
2018-11-10T06:44:37.645Z,72.01
2018-11-10T06:47:06.679Z,71.71
2018-11-10T06:49:35.583Z,71.80
2018-11-10T06:52:04.406Z,72.03
2018-11-10T06:54:33.278Z,71.68
2018-11-10T06:57:02.052Z,71.39
2018-11-10T06:59:30.860Z,71.55
2018-11-10T07:01:59.619Z,71.38
2018-11-10T07:04:28.414Z,71.35
2018-11-10T07:06:57.192Z,71.13
2018-11-10T07:09:26.431Z,70.92
2018-11-10T07:11:55.439Z,70.18
2018-11-10T07:14:24.203Z,70.37
2018-11-10T07:16:52.986Z,69.91
2018-11-10T07:19:21.785Z,69.18
2018-11-10T07:21:50.593Z,68.77
2018-11-10T07:24:19.384Z,68.40
2018-11-10T07:26:48.178Z,68.40
2018-11-10T07:29:17.086Z,67.85
2018-11-10T07:31:46.078Z,68.99
2018-11-10T07:34:15.069Z,68.24
2018-11-10T07:36:43.830Z,67.59
2018-11-10T07:39:13.033Z,67.61
2018-11-10T07:41:41.885Z,67.64
2018-11-10T07:44:10.640Z,67.52
2018-11-10T07:46:39.370Z,67.25
2018-11-10T07:49:08.163Z,67.49
2018-11-10T07:51:37.117Z,67.09
2018-11-10T07:54:05.900Z,67.54
2018-11-10T07:56:34.691Z,66.72
2018-11-10T07:59:03.434Z,66.85
2018-11-10T08:01:32.236Z,66.56
2018-11-10T08:04:00.996Z,66.18
2018-11-10T08:06:29.766Z,66.36
2018-11-10T08:08:58.553Z,66.54
2018-11-10T08:11:27.523Z,65.88
2018-11-10T08:13:56.330Z,66.07
2018-11-10T08:16:25.116Z,65.89
2018-11-10T08:18:53.918Z,65.49
2018-11-10T08:21:22.674Z,65.30
2018-11-10T08:23:51.586Z,65.38
2018-11-10T08:26:20.405Z,64.74
2018-11-10T08:28:49.199Z,64.50
2018-11-10T08:31:18.103Z,64.50
2018-11-10T08:33:46.999Z,64.19
2018-11-10T08:36:15.871Z,64.23
2018-11-10T08:38:44.862Z,64.75
2018-11-10T08:41:13.648Z,63.73
2018-11-10T08:43:42.502Z,63.80
2018-11-10T08:46:11.557Z,63.30
2018-11-10T08:48:40.429Z,63.52
2018-11-10T08:51:09.845Z,63.80
2018-11-10T08:53:38.696Z,63.98
2018-11-10T08:56:09.214Z,63.18
2018-11-10T08:58:43.626Z,63.57
2018-11-10T09:01:12.658Z,62.88
2018-11-10T09:03:41.447Z,63.44
2018-11-10T09:06:10.282Z,62.54
2018-11-10T09:08:39.054Z,62.99
2018-11-10T09:11:07.938Z,62.91
2018-11-10T09:13:36.771Z,63.54
2018-11-10T09:16:05.633Z,62.84
2018-11-10T09:18:34.620Z,62.81
2018-11-10T09:21:03.392Z,62.80
2018-11-10T09:23:32.339Z,62.42
2018-11-10T09:26:01.186Z,62.24
2018-11-10T09:28:30.008Z,61.72
2018-11-10T09:30:59.092Z,62.32
2018-11-10T09:33:28.083Z,61.94
2018-11-10T09:35:57.032Z,61.82
2018-11-10T09:38:25.834Z,60.88
2018-11-10T09:40:54.650Z,61.46
2018-11-10T09:43:23.567Z,60.51
2018-11-10T09:45:52.447Z,60.85
2018-11-10T09:48:21.918Z,61.11
2018-11-10T09:50:50.767Z,60.36
2018-11-10T09:53:19.795Z,60.28
2018-11-10T09:55:48.609Z,59.43
2018-11-10T09:58:17.417Z,58.96
2018-11-10T10:00:46.188Z,59.58
2018-11-10T10:03:15.042Z,59.07
2018-11-10T10:05:43.874Z,58.50
2018-11-10T10:08:12.678Z,58.46
2018-11-10T10:10:41.510Z,58.80
2018-11-10T10:13:10.368Z,58.61
2018-11-10T10:15:39.208Z,58.34
2018-11-10T10:18:07.970Z,57.43
2018-11-10T10:20:36.748Z,57.48
2018-11-10T10:23:05.940Z,57.39
2018-11-10T10:25:34.797Z,57.35
2018-11-10T10:28:03.594Z,56.18
2018-11-10T10:30:32.378Z,56.61
2018-11-10T10:33:01.314Z,56.39
2018-11-10T10:35:30.363Z,56.83
2018-11-10T10:37:59.186Z,56.21
2018-11-10T10:40:27.942Z,56.56
2018-11-10T10:42:56.828Z,55.85
2018-11-10T10:45:25.771Z,56.07
2018-11-10T10:47:54.631Z,55.78
2018-11-10T10:50:23.806Z,54.73
2018-11-10T10:52:52.606Z,54.35
2018-11-10T10:55:21.496Z,54.27
2018-11-10T10:57:51.166Z,54.26
2018-11-10T11:01:22.899Z,54.15
2018-11-10T11:03:56.808Z,54.07
2018-11-10T11:06:25.603Z,53.84
2018-11-10T11:08:54.417Z,53.96
2018-11-10T11:11:23.401Z,54.00
2018-11-10T11:13:52.178Z,52.86
2018-11-10T11:16:21.010Z,53.07
2018-11-10T11:18:49.819Z,53.52
2018-11-10T11:21:20.152Z,53.45
2018-11-10T11:23:49.788Z,52.64
2018-11-10T11:26:21.885Z,52.38
2018-11-10T11:28:52.577Z,52.64
2018-11-10T11:31:21.414Z,52.03
2018-11-10T11:33:54.808Z,52.78
2018-11-10T11:36:30.161Z,52.70
2018-11-10T11:39:02.307Z,52.83
2018-11-10T11:41:43.879Z,52.96
2018-11-10T11:44:19.569Z,52.02
2018-11-10T11:46:56.587Z,52.64
2018-11-10T11:49:29.531Z,52.63
2018-11-10T11:52:01.922Z,51.85
2018-11-10T11:54:32.751Z,51.71
2018-11-10T11:57:03.783Z,52.29
2018-11-10T11:59:32.634Z,52.20
2018-11-10T12:02:01.449Z,51.75
2018-11-10T12:04:30.410Z,52.07
2018-11-10T12:06:59.335Z,52.41
2018-11-10T12:09:28.094Z,52.19
2018-11-10T12:11:56.870Z,52.67
2018-11-10T12:14:25.669Z,52.44
2018-11-10T12:16:54.489Z,52.63
2018-11-10T12:19:23.455Z,52.09
2018-11-10T12:21:52.575Z,51.89
2018-11-10T12:24:21.507Z,51.75
2018-11-10T12:26:50.463Z,53.68
2018-11-10T12:29:19.807Z,52.17
2018-11-10T12:31:48.689Z,51.95
2018-11-10T12:34:17.640Z,52.38
2018-11-10T12:36:46.606Z,51.82
2018-11-10T12:39:15.482Z,52.45
2018-11-10T12:41:44.336Z,52.11
2018-11-10T12:44:13.208Z,52.56
2018-11-10T12:46:42.092Z,52.59
2018-11-10T12:49:11.329Z,52.00
2018-11-10T12:51:40.270Z,51.64
2018-11-10T12:54:09.004Z,51.32
2018-11-10T12:56:37.820Z,51.38
2018-11-10T12:59:06.735Z,51.47
2018-11-10T13:01:35.539Z,51.47
2018-11-10T13:04:04.386Z,51.83
2018-11-10T13:06:33.236Z,51.41
2018-11-10T13:09:02.060Z,50.94
2018-11-10T13:11:31.152Z,51.35
2018-11-10T13:14:00.086Z,51.35
2018-11-10T13:16:28.942Z,50.42
2018-11-10T13:18:58.348Z,50.60
2018-11-10T13:21:27.187Z,50.67
2018-11-10T13:23:56.196Z,51.09
2018-11-10T13:26:25.239Z,50.45
2018-11-10T13:28:54.079Z,51.17
2018-11-10T13:31:23.015Z,51.04
2018-11-10T13:33:51.899Z,50.37
2018-11-10T13:36:24.364Z,50.61
2018-11-10T13:38:53.353Z,50.55
2018-11-10T13:41:22.250Z,50.12
2018-11-10T13:43:51.188Z,50.04
2018-11-10T13:46:20.076Z,50.55
2018-11-10T13:48:48.903Z,50.41
2018-11-10T13:51:17.818Z,50.12
2018-11-10T13:53:46.870Z,50.21
2018-11-10T13:56:15.729Z,49.70
2018-11-10T13:58:45.406Z,49.37
2018-11-10T14:01:14.223Z,49.58
2018-11-10T14:03:43.055Z,50.40
2018-11-10T14:06:11.991Z,49.39
2018-11-10T14:08:40.734Z,49.63
2018-11-10T14:11:09.578Z,49.29
2018-11-10T14:13:38.450Z,49.41
2018-11-10T14:16:07.339Z,49.89
2018-11-10T14:18:36.170Z,49.28
2018-11-10T14:21:05.019Z,50.10
2018-11-10T14:23:33.896Z,49.53
2018-11-10T14:26:03.822Z,49.00
2018-11-10T14:28:32.803Z,49.67
2018-11-10T14:31:01.632Z,49.50
2018-11-10T14:33:30.415Z,50.23
2018-11-10T14:35:59.251Z,49.33
2018-11-10T14:38:28.110Z,50.56
2018-11-10T14:40:56.917Z,50.03
2018-11-10T14:43:25.793Z,51.10
2018-11-10T14:45:54.577Z,51.77
2018-11-10T14:48:23.352Z,52.88
2018-11-10T14:50:52.193Z,53.14
2018-11-10T14:53:21.035Z,53.52
2018-11-10T14:55:49.841Z,54.04
2018-11-10T14:58:18.664Z,53.48
2018-11-10T15:00:47.576Z,54.06
2018-11-10T15:03:16.462Z,54.26
2018-11-10T15:05:45.389Z,54.83
2018-11-10T15:08:17.583Z,54.02
2018-11-10T15:10:46.504Z,55.05
2018-11-10T15:13:15.390Z,54.92
2018-11-10T15:15:44.167Z,54.75
2018-11-10T15:18:13.080Z,55.23
2018-11-10T15:20:41.987Z,55.45
2018-11-10T15:23:10.817Z,55.55
2018-11-10T15:25:39.629Z,55.58
2018-11-10T15:28:08.787Z,56.00
2018-11-10T15:30:37.587Z,55.80
2018-11-10T15:33:06.375Z,56.35
2018-11-10T15:35:35.281Z,55.86
2018-11-10T15:38:04.062Z,56.02
2018-11-10T15:40:32.803Z,56.19
2018-11-10T15:43:01.582Z,56.17
2018-11-10T15:45:30.421Z,56.05
2018-11-10T15:47:59.810Z,56.60
2018-11-10T15:50:28.740Z,56.91
2018-11-10T15:52:57.750Z,57.55
2018-11-10T15:55:26.523Z,57.17
2018-11-10T15:57:55.330Z,57.99
2018-11-10T16:00:24.335Z,57.75
2018-11-10T16:02:53.146Z,57.58
2018-11-10T16:05:21.958Z,57.72
2018-11-10T16:07:50.792Z,57.95
2018-11-10T16:10:19.785Z,57.09
2018-11-10T16:12:48.739Z,57.30
2018-11-10T16:15:18.451Z,57.79
2018-11-10T16:17:47.374Z,57.81
2018-11-10T16:20:17.453Z,57.39
2018-11-10T16:22:47.707Z,58.07
2018-11-10T16:25:16.791Z,57.54
2018-11-10T16:27:46.883Z,58.18
2018-11-10T16:30:17.156Z,58.27
2018-11-10T16:32:46.199Z,58.13
2018-11-10T16:35:15.098Z,58.05
2018-11-10T16:37:43.856Z,58.50
2018-11-10T16:40:15.983Z,58.52
2018-11-10T16:42:45.841Z,58.74
2018-11-10T16:45:15.266Z,58.32
2018-11-10T16:47:44.239Z,58.29
2018-11-10T16:50:13.230Z,58.85
2018-11-10T16:52:42.924Z,58.70
2018-11-10T16:55:11.893Z,58.39
2018-11-10T16:57:40.856Z,58.97
2018-11-10T17:00:15.323Z,58.11
2018-11-10T17:02:44.247Z,58.23
2018-11-10T17:05:13.168Z,58.24
2018-11-10T17:07:42.266Z,58.35
2018-11-10T17:10:14.821Z,57.62
2018-11-10T17:12:43.937Z,58.07
2018-11-10T17:15:12.758Z,57.93
2018-11-10T17:17:41.807Z,57.83
2018-11-10T17:20:13.070Z,57.92
2018-11-10T17:22:42.014Z,58.15
2018-11-10T17:25:11.999Z,57.78
2018-11-10T17:27:41.243Z,57.79
2018-11-10T17:30:13.089Z,58.42
2018-11-10T17:32:42.237Z,57.67
2018-11-10T17:35:11.804Z,57.76
2018-11-10T17:37:40.637Z,58.23
2018-11-10T17:40:11.572Z,58.25
2018-11-10T17:42:40.540Z,58.49
2018-11-10T17:45:11.485Z,58.76
2018-11-10T17:47:40.484Z,58.77
2018-11-10T17:50:10.879Z,59.04
2018-11-10T17:52:40.424Z,59.30
2018-11-10T17:55:10.661Z,59.58
2018-11-10T17:57:39.662Z,60.30
2018-11-10T18:00:08.862Z,60.55
2018-11-10T18:02:37.802Z,59.79
2018-11-10T18:05:08.685Z,60.49
2018-11-10T18:07:37.543Z,61.12
2018-11-10T18:10:08.033Z,59.96
2018-11-10T18:12:36.843Z,60.02
2018-11-10T18:15:06.286Z,60.08
2018-11-10T18:17:35.095Z,60.62
2018-11-10T18:20:04.003Z,59.91
2018-11-10T18:22:32.770Z,60.31
2018-11-10T18:25:01.601Z,60.53
2018-11-10T18:27:30.586Z,60.35
2018-11-10T18:29:59.429Z,60.79
2018-11-10T18:35:09.278Z,60.43
2018-11-10T18:37:38.140Z,60.88
2018-11-10T18:40:07.504Z,60.67
2018-11-10T18:42:36.388Z,61.75
2018-11-10T18:45:05.861Z,61.67
2018-11-10T18:47:34.713Z,61.54
2018-11-10T18:50:03.779Z,61.80
2018-11-10T18:52:32.635Z,61.69
2018-11-10T18:55:01.479Z,61.53
2018-11-10T18:57:30.520Z,61.79
2018-11-10T18:59:59.355Z,61.49
2018-11-10T19:02:28.172Z,61.94
2018-11-10T19:04:56.955Z,62.13
2018-11-10T19:07:25.775Z,61.81
2018-11-10T19:09:54.591Z,61.83
2018-11-10T19:12:23.797Z,62.12
2018-11-10T19:14:52.626Z,62.00
2018-11-10T19:17:21.525Z,62.54
2018-11-10T19:19:50.387Z,62.17
2018-11-10T19:22:19.346Z,62.18
2018-11-10T19:24:48.191Z,61.56
2018-11-10T19:27:16.991Z,62.11
2018-11-10T19:29:45.889Z,62.08
2018-11-10T19:32:14.710Z,61.91
2018-11-10T19:34:43.702Z,62.04
2018-11-10T19:37:12.566Z,62.42
2018-11-10T19:39:41.483Z,62.47
2018-11-10T19:42:10.274Z,62.79
2018-11-10T19:44:39.089Z,62.17
2018-11-10T19:47:07.894Z,63.04
2018-11-10T19:49:36.754Z,62.80
2018-11-10T19:52:06.050Z,62.71
2018-11-10T19:54:34.941Z,62.76
2018-11-10T19:57:03.774Z,62.68
2018-11-10T19:59:32.567Z,63.01
2018-11-10T20:02:01.351Z,63.08
2018-11-10T20:04:30.130Z,63.51
2018-11-10T20:06:58.964Z,64.13
2018-11-10T20:09:27.723Z,64.33
2018-11-10T20:11:56.562Z,65.29
2018-11-10T20:14:25.350Z,64.94
2018-11-10T20:16:54.203Z,64.78
2018-11-10T20:19:23.143Z,65.02
2018-11-10T20:21:52.115Z,64.93
2018-11-10T20:24:20.898Z,64.64
2018-11-10T20:26:49.699Z,64.98
2018-11-10T20:29:18.570Z,65.49
2018-11-10T20:31:47.411Z,65.28
2018-11-10T20:34:16.244Z,65.36
2018-11-10T20:36:45.210Z,65.95
2018-11-10T20:39:14.080Z,65.72
2018-11-10T20:41:42.877Z,65.64
2018-11-10T20:44:11.726Z,66.24
2018-11-10T20:46:40.592Z,66.08
2018-11-10T20:49:09.466Z,66.13
2018-11-10T20:51:38.262Z,66.35
2018-11-10T20:54:07.443Z,66.87
2018-11-10T20:56:36.193Z,66.54
2018-11-10T20:59:05.178Z,67.09
2018-11-10T21:01:33.970Z,66.80
2018-11-10T21:04:02.787Z,66.81
2018-11-10T21:06:31.627Z,67.13
2018-11-10T21:09:00.406Z,66.70
2018-11-10T21:11:29.178Z,66.84
2018-11-10T21:13:57.995Z,66.74
2018-11-10T21:16:26.771Z,66.82
2018-11-10T21:18:55.645Z,66.56
2018-11-10T21:21:24.458Z,66.69
2018-11-10T21:23:53.243Z,66.55
2018-11-10T21:26:22.038Z,66.88
2018-11-10T21:28:50.872Z,67.47
2018-11-10T21:31:19.860Z,67.67
2018-11-10T21:33:48.864Z,68.08
2018-11-10T21:36:17.742Z,68.55
2018-11-10T21:38:46.526Z,68.99
2018-11-10T21:41:15.410Z,68.69
2018-11-10T21:43:44.263Z,68.96
2018-11-10T21:46:13.312Z,69.19
2018-11-10T21:48:42.099Z,69.20
2018-11-10T21:51:10.946Z,69.18
2018-11-10T21:53:39.731Z,68.80
2018-11-10T21:56:08.507Z,68.90
2018-11-10T21:58:37.314Z,68.73
2018-11-10T22:01:06.164Z,68.63
2018-11-10T22:03:34.954Z,68.26
2018-11-10T22:06:03.774Z,68.79
2018-11-10T22:08:32.761Z,68.04
2018-11-10T22:11:01.639Z,68.21
2018-11-10T22:13:30.670Z,68.32
2018-11-10T22:15:59.591Z,68.28
2018-11-10T22:18:28.708Z,68.30
2018-11-10T22:20:57.495Z,68.09
2018-11-10T22:23:26.285Z,68.15
2018-11-10T22:25:55.159Z,68.30
2018-11-10T22:28:23.970Z,68.04
2018-11-10T22:30:52.836Z,68.35
2018-11-10T22:33:21.848Z,67.89
2018-11-10T22:35:50.605Z,68.14
2018-11-10T22:38:19.382Z,68.49
2018-11-10T22:40:48.234Z,67.95
2018-11-10T22:43:16.995Z,67.79
2018-11-10T22:45:45.727Z,68.40
2018-11-10T22:48:14.571Z,69.49
2018-11-10T22:50:43.335Z,69.72
2018-11-10T22:53:12.174Z,68.81
2018-11-10T22:55:41.007Z,68.66
2018-11-10T22:58:09.772Z,68.93
2018-11-10T23:00:42.781Z,69.30
2018-11-10T23:03:11.601Z,68.94
2018-11-10T23:05:40.432Z,68.86
2018-11-10T23:08:09.604Z,69.27
2018-11-10T23:10:38.751Z,69.30
2018-11-10T23:13:07.642Z,69.61
2018-11-10T23:15:36.407Z,69.16
2018-11-10T23:18:05.264Z,69.27
2018-11-10T23:20:34.048Z,69.18
2018-11-10T23:23:02.926Z,69.52
2018-11-10T23:25:31.868Z,69.46
2018-11-10T23:28:00.680Z,69.44
2018-11-10T23:30:29.536Z,69.53
2018-11-10T23:32:58.302Z,69.81
2018-11-10T23:35:27.069Z,69.47
2018-11-10T23:37:55.886Z,69.41
2018-11-10T23:40:24.754Z,69.46
2018-11-10T23:42:53.571Z,69.79
2018-11-10T23:45:22.363Z,68.96
2018-11-10T23:47:51.167Z,68.71
2018-11-10T23:50:19.958Z,69.01
2018-11-10T23:52:48.826Z,69.24
2018-11-10T23:55:17.918Z,69.81
2018-11-10T23:57:46.827Z,70.33
